createdAt,value
2023-02-03T00:02:09.993Z,7.80
2023-02-03T00:04:36.751Z,7.97
2023-02-03T00:07:03.453Z,8.13
2023-02-03T00:09:30.380Z,7.22
2023-02-03T00:11:57.086Z,7.82
2023-02-03T00:14:23.828Z,6.93
2023-02-03T00:16:50.485Z,7.40
2023-02-03T00:19:17.694Z,7.05
2023-02-03T00:21:44.720Z,6.97
2023-02-03T00:24:11.608Z,5.95
2023-02-03T00:26:42.797Z,6.03
2023-02-03T00:29:09.591Z,6.20
2023-02-03T00:31:36.903Z,6.25
2023-02-03T00:34:03.783Z,6.45
2023-02-03T00:36:30.438Z,6.53
2023-02-03T00:38:57.105Z,7.25
2023-02-03T00:41:29.443Z,6.55
2023-02-03T00:43:56.177Z,7.53
2023-02-03T00:46:22.865Z,7.38
2023-02-03T00:48:49.628Z,7.43
2023-02-03T00:51:16.636Z,7.45
2023-02-03T00:53:43.372Z,7.53
2023-02-03T00:56:10.136Z,7.72
2023-02-03T00:58:36.873Z,7.95
2023-02-03T01:01:03.565Z,7.68
2023-02-03T01:03:30.340Z,7.72
2023-02-03T01:05:57.065Z,7.13
2023-02-03T01:08:23.856Z,8.77
2023-02-03T01:10:50.525Z,8.77
2023-02-03T01:13:17.192Z,9.20
2023-02-03T01:15:47.717Z,9.60
2023-02-03T01:18:14.686Z,8.13
2023-02-03T01:20:41.437Z,8.13
2023-02-03T01:23:08.082Z,8.05
2023-02-03T01:25:36.069Z,8.32
2023-02-03T01:28:05.411Z,8.63
2023-02-03T01:30:32.175Z,9.32
2023-02-03T01:32:58.944Z,9.50
2023-02-03T01:35:25.702Z,9.55
2023-02-03T01:37:52.389Z,10.80
2023-02-03T01:40:19.377Z,10.95
2023-02-03T01:42:46.156Z,10.73
2023-02-03T01:45:13.680Z,12.30
2023-02-03T01:48:03.222Z,11.32
2023-02-03T01:50:36.944Z,13.18
2023-02-03T01:53:08.153Z,12.48
2023-02-03T01:55:38.410Z,12.77
2023-02-03T01:58:28.219Z,14.60
2023-02-03T02:00:55.866Z,14.18
2023-02-03T02:03:29.925Z,14.32
2023-02-03T02:06:05.529Z,13.93
2023-02-03T02:11:00.353Z,13.85
2023-02-03T02:13:31.520Z,12.80
2023-02-03T02:16:28.124Z,14.07
2023-02-03T02:21:49.283Z,14.43
2023-02-03T02:24:22.114Z,14.93
2023-02-03T02:27:00.279Z,14.75
2023-02-03T02:29:50.028Z,14.18
2023-02-03T02:32:20.851Z,16.08
2023-02-03T02:35:01.878Z,16.23
2023-02-03T02:37:31.631Z,15.75
2023-02-03T02:40:43.806Z,14.88
2023-02-03T02:43:10.522Z,16.05
2023-02-03T02:46:00.420Z,15.25
2023-02-03T02:48:38.154Z,14.77
2023-02-03T02:51:07.663Z,12.60
2023-02-03T02:53:38.707Z,12.73
2023-02-03T02:56:07.967Z,12.80
2023-02-03T02:58:37.594Z,12.73
2023-02-03T03:01:06.902Z,11.38
2023-02-03T03:03:34.338Z,12.05
2023-02-03T03:06:30.414Z,11.23
2023-02-03T03:09:22.829Z,10.63
2023-02-03T03:12:22.046Z,9.15
2023-02-03T03:14:53.791Z,9.77
2023-02-03T03:17:31.109Z,10.52
2023-02-03T03:20:05.122Z,8.98
2023-02-03T03:22:36.780Z,9.43
2023-02-03T03:25:11.121Z,7.88
2023-02-03T03:27:40.820Z,7.93
2023-02-03T03:30:29.664Z,8.18
2023-02-03T03:32:56.798Z,7.97
2023-02-03T03:35:24.709Z,9.00
2023-02-03T03:38:09.664Z,8.48
2023-02-03T03:40:49.852Z,8.35
2023-02-03T03:43:24.015Z,8.65
2023-02-03T03:45:59.989Z,8.13
2023-02-03T03:48:31.965Z,7.90
2023-02-03T03:51:05.228Z,7.78
2023-02-03T03:53:35.252Z,8.80
2023-02-03T03:56:06.078Z,8.75
2023-02-03T03:58:33.123Z,8.85
2023-02-03T04:01:05.570Z,7.97
2023-02-03T04:03:48.200Z,8.38
2023-02-03T04:06:15.244Z,7.93
2023-02-03T04:08:41.885Z,8.20
2023-02-03T04:11:08.614Z,8.48
2023-02-03T04:13:35.399Z,9.35
2023-02-03T04:16:02.205Z,8.38
2023-02-03T04:18:29.271Z,7.95
2023-02-03T04:20:56.027Z,10.02
2023-02-03T04:23:22.715Z,8.82
2023-02-03T04:25:49.380Z,9.27
2023-02-03T04:28:16.323Z,9.85
2023-02-03T04:30:43.106Z,11.48
2023-02-03T04:33:09.800Z,12.95
2023-02-03T04:35:36.477Z,14.13
2023-02-03T04:38:03.242Z,15.13
2023-02-03T04:40:30.100Z,16.42
2023-02-03T04:42:56.961Z,16.40
2023-02-03T04:45:23.784Z,15.35
2023-02-03T04:47:54.400Z,15.65
2023-02-03T04:50:21.445Z,17.65
2023-02-03T04:52:48.105Z,16.67
2023-02-03T04:55:14.829Z,18.75
2023-02-03T04:57:41.564Z,19.52
2023-02-03T05:00:09.028Z,20.17
2023-02-03T05:02:35.809Z,22.38
2023-02-03T05:05:02.748Z,23.83
2023-02-03T05:07:29.452Z,25.05
2023-02-03T05:09:56.095Z,25.40
2023-02-03T05:12:22.794Z,26.30
2023-02-03T05:14:49.471Z,27.85
2023-02-03T05:17:16.180Z,29.30
2023-02-03T05:19:43.006Z,30.33
2023-02-03T05:22:09.703Z,31.20
2023-02-03T05:24:36.380Z,33.58
2023-02-03T05:27:03.122Z,33.33
2023-02-03T05:29:29.882Z,33.42
2023-02-03T05:31:56.731Z,35.00
2023-02-03T05:34:23.506Z,35.13
2023-02-03T05:36:50.243Z,36.55
2023-02-03T05:39:17.030Z,35.72
2023-02-03T05:41:43.744Z,38.30
2023-02-03T05:44:10.424Z,42.00
2023-02-03T05:46:37.107Z,43.17
2023-02-03T05:49:03.807Z,42.38
2023-02-03T05:51:30.480Z,45.60
2023-02-03T05:53:57.207Z,45.67
2023-02-03T05:56:23.929Z,44.95
2023-02-03T05:58:50.641Z,45.55
2023-02-03T06:01:17.323Z,44.28
2023-02-03T06:03:46.204Z,44.78
2023-02-03T06:06:13.447Z,43.00
2023-02-03T06:08:40.581Z,43.97
2023-02-03T06:11:07.395Z,44.13
2023-02-03T06:13:34.425Z,44.35
2023-02-03T06:16:01.229Z,44.13
2023-02-03T06:18:27.921Z,46.38
2023-02-03T06:20:54.574Z,45.90
2023-02-03T06:23:21.362Z,46.97
2023-02-03T06:25:49.314Z,43.80
2023-02-03T06:28:16.202Z,45.25
2023-02-03T06:30:43.462Z,42.75
2023-02-03T06:33:10.313Z,42.40
2023-02-03T06:35:37.015Z,43.00
2023-02-03T06:38:03.673Z,41.67
2023-02-03T06:40:30.763Z,42.20
2023-02-03T06:42:57.725Z,41.60
2023-02-03T06:45:24.509Z,42.55
2023-02-03T06:47:51.338Z,41.03
2023-02-03T06:50:18.216Z,42.85
2023-02-03T06:52:44.972Z,39.03
2023-02-03T06:55:11.785Z,38.17
2023-02-03T06:57:48.797Z,41.15
2023-02-03T07:00:18.968Z,39.30
2023-02-03T07:02:47.235Z,37.55
2023-02-03T07:05:14.069Z,36.58
2023-02-03T07:07:40.767Z,33.95
2023-02-03T07:10:08.123Z,31.95
2023-02-03T07:12:34.879Z,33.25
2023-02-03T07:15:01.755Z,32.45
2023-02-03T07:17:28.487Z,32.97
2023-02-03T07:19:55.257Z,33.53
2023-02-03T07:22:22.021Z,34.20
2023-02-03T07:24:48.879Z,36.97
2023-02-03T07:27:15.656Z,36.10
2023-02-03T07:29:42.382Z,35.75
2023-02-03T07:32:09.646Z,34.50
2023-02-03T07:34:36.492Z,33.58
2023-02-03T07:37:03.410Z,34.63
2023-02-03T07:39:30.184Z,33.58
2023-02-03T07:41:56.983Z,33.92
2023-02-03T07:44:23.696Z,31.75
2023-02-03T07:46:50.414Z,30.52
2023-02-03T07:49:17.132Z,29.15
2023-02-03T07:51:43.958Z,26.80
2023-02-03T07:54:10.707Z,26.70
2023-02-03T07:56:37.421Z,24.35
2023-02-03T07:59:04.154Z,22.08
2023-02-03T08:01:31.117Z,20.95
2023-02-03T08:03:57.851Z,20.58
2023-02-03T08:06:24.787Z,21.95
2023-02-03T08:08:51.466Z,23.17
2023-02-03T08:11:18.221Z,24.48
2023-02-03T08:13:45.009Z,22.65
2023-02-03T08:16:11.866Z,21.08
2023-02-03T08:18:38.567Z,20.30
2023-02-03T08:21:05.584Z,17.27
2023-02-03T08:23:32.459Z,21.17
2023-02-03T08:25:59.183Z,19.33
2023-02-03T08:28:26.347Z,20.48
2023-02-03T08:30:55.122Z,19.33
2023-02-03T08:33:21.912Z,18.38
2023-02-03T08:35:50.409Z,19.90
2023-02-03T08:38:17.421Z,19.90
2023-02-03T08:40:44.151Z,17.20
2023-02-03T08:43:10.974Z,17.35
2023-02-03T08:45:39.416Z,18.00
2023-02-03T08:48:06.377Z,16.95
2023-02-03T08:50:35.359Z,17.45
2023-02-03T08:53:02.291Z,15.13
2023-02-03T08:55:29.092Z,16.05
2023-02-03T08:57:57.267Z,16.08
2023-02-03T09:00:24.444Z,16.58
2023-02-03T09:02:51.413Z,17.30
2023-02-03T09:05:18.565Z,17.10
2023-02-03T09:07:45.756Z,16.15
2023-02-03T09:10:16.043Z,15.77
2023-02-03T09:12:42.876Z,14.82
2023-02-03T09:15:10.172Z,15.45
2023-02-03T09:17:37.109Z,13.52
2023-02-03T09:20:06.738Z,13.98
2023-02-03T09:22:33.563Z,11.98
2023-02-03T09:25:00.880Z,12.18
2023-02-03T09:27:27.880Z,11.55
2023-02-03T09:29:54.695Z,10.63
2023-02-03T09:32:21.467Z,11.98
2023-02-03T09:34:48.158Z,11.35
2023-02-03T09:37:14.916Z,11.02
2023-02-03T09:39:41.743Z,11.25
2023-02-03T09:42:28.734Z,11.60
2023-02-03T09:45:13.595Z,12.23
2023-02-03T09:47:43.496Z,11.55
2023-02-03T09:50:20.432Z,11.50
2023-02-03T09:52:48.147Z,10.40
2023-02-03T09:55:33.982Z,8.90
2023-02-03T09:58:10.764Z,8.68
2023-02-03T10:00:43.723Z,9.50
2023-02-03T10:03:25.791Z,8.40
2023-02-03T10:05:52.449Z,8.05
2023-02-03T10:08:56.840Z,8.10
2023-02-03T10:11:35.220Z,7.20
2023-02-03T10:14:40.817Z,7.38
2023-02-03T10:17:25.201Z,8.07
2023-02-03T10:20:10.507Z,8.10
2023-02-03T10:22:46.282Z,7.40
2023-02-03T10:27:46.583Z,6.35
2023-02-03T10:30:32.008Z,5.93
2023-02-03T10:33:13.745Z,5.78
2023-02-03T10:35:47.180Z,5.25
2023-02-03T10:38:24.449Z,4.55
2023-02-03T10:40:51.346Z,5.07
2023-02-03T10:43:18.289Z,5.93
2023-02-03T10:45:45.086Z,6.88
2023-02-03T10:48:18.044Z,3.17
2023-02-03T10:50:48.772Z,2.50
2023-02-03T10:53:18.727Z,3.05
2023-02-03T10:56:13.483Z,2.95
2023-02-03T10:58:52.485Z,2.70
2023-02-03T11:01:22.304Z,2.72
2023-02-03T11:04:03.565Z,2.88
2023-02-03T11:06:34.319Z,2.90
2023-02-03T11:09:01.046Z,3.40
2023-02-03T11:11:32.943Z,3.50
2023-02-03T11:14:02.797Z,3.58
2023-02-03T11:16:37.850Z,3.80
2023-02-03T11:19:16.767Z,3.63
2023-02-03T11:21:54.553Z,3.38
2023-02-03T11:24:28.257Z,4.03
2023-02-03T11:26:58.201Z,4.18
2023-02-03T11:29:32.709Z,4.18
2023-02-03T11:32:03.289Z,4.47
2023-02-03T11:34:38.419Z,5.18
2023-02-03T11:37:28.546Z,3.97
2023-02-03T11:40:21.143Z,4.97
2023-02-03T11:42:51.027Z,4.68
2023-02-03T11:45:17.698Z,4.05
2023-02-03T11:47:52.547Z,5.25
2023-02-03T11:50:34.558Z,5.70
2023-02-03T11:53:23.883Z,5.10
2023-02-03T11:55:57.231Z,5.72
2023-02-03T11:59:02.258Z,6.07
2023-02-03T12:01:57.045Z,6.32
2023-02-03T12:05:01.329Z,6.57
2023-02-03T12:07:39.896Z,6.18
2023-02-03T12:10:12.281Z,6.93
2023-02-03T12:12:45.037Z,6.82
2023-02-03T12:15:32.375Z,6.30
2023-02-03T12:18:01.623Z,6.72
2023-02-03T12:20:46.669Z,7.38
2023-02-03T12:23:30.466Z,8.10
2023-02-03T12:26:31.035Z,7.80
2023-02-03T12:29:16.203Z,7.30
2023-02-03T12:32:13.250Z,6.95
2023-02-03T12:34:46.534Z,8.15
2023-02-03T12:37:40.269Z,7.95
2023-02-03T12:40:31.762Z,8.13
2023-02-03T12:43:22.417Z,9.05
2023-02-03T12:46:00.994Z,7.82
2023-02-03T12:48:54.174Z,8.50
2023-02-03T12:51:42.155Z,8.68
2023-02-03T12:54:32.537Z,8.90
2023-02-03T12:57:24.700Z,9.38
2023-02-03T13:00:20.613Z,5.25
2023-02-03T13:02:57.397Z,3.78
2023-02-03T13:05:55.918Z,4.00
2023-02-03T13:08:45.998Z,3.65
2023-02-03T13:11:35.889Z,3.83
2023-02-03T13:14:24.563Z,4.20
2023-02-03T13:17:15.731Z,4.57
2023-02-03T13:20:07.111Z,4.45
2023-02-03T13:22:33.808Z,4.72
2023-02-03T13:25:10.341Z,4.78
2023-02-03T13:27:45.872Z,4.97
2023-02-03T13:30:18.454Z,5.32
2023-02-03T13:33:03.151Z,5.32
2023-02-03T13:36:00.602Z,5.45
2023-02-03T13:38:38.674Z,5.47
2023-02-03T13:41:18.444Z,5.82
2023-02-03T13:43:53.800Z,5.75
2023-02-03T13:46:27.400Z,7.10
2023-02-03T13:48:56.577Z,6.82
2023-02-03T13:51:26.945Z,6.60
2023-02-03T13:54:00.777Z,6.65
2023-02-03T13:56:28.442Z,6.57
2023-02-03T13:59:12.435Z,5.95
2023-02-03T14:01:40.749Z,6.85
2023-02-03T14:04:28.928Z,7.05
2023-02-03T14:06:58.894Z,7.18
2023-02-03T14:09:31.904Z,7.78
2023-02-03T14:12:29.643Z,7.50
2023-02-03T14:14:59.681Z,7.50
2023-02-03T14:17:35.644Z,8.27
2023-02-03T14:20:05.407Z,8.02
2023-02-03T14:22:32.443Z,7.40
2023-02-03T14:25:06.522Z,7.32
2023-02-03T14:27:33.551Z,8.40
2023-02-03T14:30:14.761Z,8.07
2023-02-03T14:32:57.353Z,8.07
2023-02-03T14:35:33.657Z,8.63
2023-02-03T14:38:04.064Z,8.48
2023-02-03T14:40:55.705Z,8.40
2023-02-03T14:43:34.346Z,8.93
2023-02-03T14:46:13.745Z,9.50
2023-02-03T14:49:00.164Z,8.95
2023-02-03T14:51:48.752Z,9.57
2023-02-03T14:54:24.241Z,9.10
2023-02-03T14:57:06.122Z,9.32
2023-02-03T14:59:47.319Z,9.75
2023-02-03T15:02:23.498Z,10.75
2023-02-03T15:04:50.317Z,10.27
2023-02-03T15:07:38.972Z,12.75
2023-02-03T15:10:17.364Z,10.02
2023-02-03T15:12:47.189Z,10.07
2023-02-03T15:15:29.419Z,10.10
2023-02-03T15:18:19.109Z,10.60
2023-02-03T15:20:55.849Z,9.52
2023-02-03T15:23:27.663Z,9.90
2023-02-03T15:25:59.752Z,9.23
2023-02-03T15:28:30.775Z,9.65
2023-02-03T15:31:06.791Z,8.90
2023-02-03T15:33:35.821Z,9.10
2023-02-03T15:36:08.334Z,10.50
2023-02-03T15:38:47.688Z,9.82
2023-02-03T15:41:25.034Z,8.85
2023-02-03T15:44:12.349Z,9.23
2023-02-03T15:46:48.717Z,9.02
2023-02-03T15:49:20.870Z,8.73
2023-02-03T15:52:13.320Z,8.10
2023-02-03T15:54:49.673Z,8.02
2023-02-03T15:57:27.524Z,6.85
2023-02-03T15:59:59.842Z,7.88
2023-02-03T16:02:34.179Z,7.38
2023-02-03T16:05:06.305Z,7.95
2023-02-03T16:07:33.023Z,7.22
2023-02-03T16:10:01.177Z,7.57
2023-02-03T16:12:30.249Z,8.60
2023-02-03T16:14:58.763Z,7.85
2023-02-03T16:17:28.477Z,8.35
2023-02-03T16:20:13.403Z,8.25
2023-02-03T16:22:46.012Z,9.02
2023-02-03T16:25:23.469Z,7.63
2023-02-03T16:28:24.620Z,8.32
2023-02-03T16:31:10.231Z,8.48
2023-02-03T16:33:37.089Z,8.63
2023-02-03T16:36:13.596Z,9.38
2023-02-03T16:38:50.259Z,8.55
2023-02-03T16:41:17.954Z,9.15
2023-02-03T16:43:45.517Z,8.80
2023-02-03T16:46:12.787Z,8.90
2023-02-03T16:48:42.824Z,8.57
2023-02-03T16:51:15.387Z,8.85
2023-02-03T16:53:44.390Z,9.20
2023-02-03T16:56:12.310Z,9.65
2023-02-03T16:58:39.393Z,9.23
2023-02-03T17:01:07.540Z,9.95
2023-02-03T17:03:35.769Z,9.18
2023-02-03T17:06:09.302Z,9.18
2023-02-03T17:08:37.038Z,9.45
2023-02-03T17:11:16.942Z,9.68
2023-02-03T17:13:44.078Z,9.77
2023-02-03T17:16:14.172Z,8.40
2023-02-03T17:18:40.897Z,9.60
2023-02-03T17:21:09.768Z,10.38
2023-02-03T17:23:36.926Z,9.00
2023-02-03T17:26:04.006Z,9.90
2023-02-03T17:28:30.805Z,9.70
2023-02-03T17:31:04.494Z,9.90
2023-02-03T17:33:33.170Z,9.52
2023-02-03T17:36:03.281Z,9.27
2023-02-03T17:38:30.676Z,9.10
2023-02-03T17:54:39.386Z,9.50
2023-02-03T17:57:06.253Z,9.23
2023-02-03T17:59:33.249Z,9.73
2023-02-03T18:02:00.731Z,9.63
2023-02-03T18:04:27.691Z,9.70
2023-02-03T18:06:54.484Z,8.88
2023-02-03T18:09:21.262Z,8.82
2023-02-03T18:11:47.965Z,9.55
2023-02-03T18:14:15.188Z,9.75
2023-02-03T18:16:42.471Z,9.23
2023-02-03T18:19:13.059Z,8.68
2023-02-03T18:21:40.550Z,8.95
2023-02-03T18:24:07.453Z,8.98
2023-02-03T18:26:35.632Z,9.35
2023-02-03T18:29:04.713Z,8.98
2023-02-03T18:31:32.168Z,8.07
2023-02-03T18:34:05.123Z,9.82
2023-02-03T18:36:32.636Z,9.60
2023-02-03T18:38:59.383Z,9.20
2023-02-03T18:41:26.969Z,8.85
2023-02-03T18:43:53.874Z,8.85
2023-02-03T18:46:26.370Z,8.23
2023-02-03T18:48:53.551Z,8.25
2023-02-03T18:51:21.537Z,8.10
2023-02-03T18:53:49.243Z,7.57
2023-02-03T18:56:22.396Z,8.13
2023-02-03T18:58:49.519Z,8.18
2023-02-03T19:01:24.782Z,8.30
2023-02-03T19:03:51.893Z,8.30
2023-02-03T19:06:19.243Z,7.28
2023-02-03T19:08:46.276Z,7.95
2023-02-03T19:11:13.970Z,7.57
2023-02-03T19:13:41.440Z,7.45
2023-02-03T19:16:10.123Z,6.65
2023-02-03T19:18:37.183Z,6.88
2023-02-03T19:21:03.999Z,6.72
2023-02-03T19:23:31.131Z,6.60
2023-02-03T19:25:58.691Z,6.55
2023-02-03T19:28:30.812Z,6.28
2023-02-03T19:31:09.222Z,5.72
2023-02-03T19:33:39.376Z,5.47
2023-02-03T19:36:07.447Z,5.03
2023-02-03T19:38:34.637Z,4.95
2023-02-03T19:41:01.745Z,4.45
2023-02-03T19:43:29.993Z,5.53
2023-02-03T19:45:56.774Z,5.22
2023-02-03T19:48:23.546Z,5.50
2023-02-03T19:50:50.324Z,5.40
2023-02-03T19:53:17.913Z,4.95
2023-02-03T19:55:45.776Z,5.30
2023-02-03T19:58:13.764Z,5.18
2023-02-03T20:00:40.656Z,4.97
2023-02-03T20:03:07.362Z,4.72
2023-02-03T20:05:35.156Z,5.03
2023-02-03T20:08:02.042Z,5.45
2023-02-03T20:10:29.043Z,4.95
2023-02-03T20:12:55.980Z,5.00
2023-02-03T20:15:22.978Z,4.15
2023-02-03T20:17:49.964Z,4.38
2023-02-03T20:20:19.164Z,5.15
2023-02-03T20:22:47.281Z,4.45
2023-02-03T20:25:14.523Z,4.30
2023-02-03T20:27:41.375Z,4.95
2023-02-03T20:30:08.654Z,4.07
2023-02-03T20:32:36.379Z,4.25
2023-02-03T20:35:03.681Z,6.00
2023-02-03T20:37:30.429Z,4.03
2023-02-03T20:39:57.410Z,4.35
2023-02-03T20:42:24.433Z,3.78
2023-02-03T20:44:51.155Z,3.70
2023-02-03T20:47:18.120Z,3.72
2023-02-03T20:49:45.704Z,4.05
2023-02-03T20:52:20.988Z,3.30
2023-02-03T20:54:47.810Z,3.50
2023-02-03T20:57:19.415Z,2.95
2023-02-03T20:59:46.342Z,3.20
2023-02-03T21:02:23.875Z,3.17
2023-02-03T21:04:51.329Z,2.85
2023-02-03T21:07:18.519Z,2.67
2023-02-03T21:09:45.183Z,2.50
2023-02-03T21:12:12.784Z,3.00
2023-02-03T21:14:43.677Z,2.97
2023-02-03T21:17:22.359Z,2.40
2023-02-03T21:19:50.048Z,2.08
2023-02-03T21:22:24.241Z,1.63
2023-02-03T21:24:59.206Z,1.63
2023-02-03T21:27:35.357Z,1.73
2023-02-03T21:30:22.288Z,1.20
2023-02-03T21:32:49.005Z,1.30
2023-02-03T21:35:36.931Z,1.20
2023-02-03T21:38:29.839Z,1.13
2023-02-03T21:40:56.922Z,0.88
2023-02-03T21:43:24.185Z,1.00
2023-02-03T21:45:51.492Z,0.98
2023-02-03T21:48:30.872Z,1.02
2023-02-03T21:51:03.194Z,1.27
2023-02-03T21:53:35.586Z,1.10
2023-02-03T21:56:16.961Z,1.00
2023-02-03T21:58:45.169Z,0.90
2023-02-03T22:01:12.212Z,1.20
2023-02-03T22:03:39.728Z,0.90
2023-02-03T22:06:09.414Z,1.13
2023-02-03T22:08:48.391Z,1.10
2023-02-03T22:11:17.128Z,1.15
2023-02-03T22:13:44.453Z,1.30
2023-02-03T22:16:11.711Z,1.20
2023-02-03T22:18:38.690Z,1.45
2023-02-03T22:21:05.475Z,1.60
2023-02-03T22:23:32.138Z,1.50
2023-02-03T22:25:58.855Z,1.80
2023-02-03T22:28:25.984Z,1.58
2023-02-03T22:30:52.825Z,1.50
2023-02-03T22:33:19.747Z,1.27
2023-02-03T22:35:46.912Z,1.45
2023-02-03T22:38:13.673Z,1.20
2023-02-03T22:40:40.366Z,1.35
2023-02-03T22:43:07.092Z,1.38
2023-02-03T22:45:33.867Z,1.30
2023-02-03T22:48:00.564Z,1.20
2023-02-03T22:50:35.413Z,1.40
2023-02-03T22:53:03.863Z,1.10
2023-02-03T22:55:31.232Z,1.20
2023-02-03T22:57:58.304Z,1.42
2023-02-03T23:00:25.900Z,1.70
2023-02-03T23:02:52.947Z,1.48
2023-02-03T23:05:20.408Z,1.67
2023-02-03T23:07:48.030Z,1.63
2023-02-03T23:10:17.979Z,1.90
2023-02-03T23:12:44.847Z,1.60
2023-02-03T23:15:12.158Z,1.45
2023-02-03T23:17:39.148Z,1.60
2023-02-03T23:20:07.703Z,1.52
2023-02-03T23:22:34.535Z,1.27
2023-02-03T23:25:01.676Z,1.50
2023-02-03T23:27:28.380Z,1.23
2023-02-03T23:29:55.181Z,1.63
2023-02-03T23:32:21.890Z,1.63
2023-02-03T23:34:48.661Z,1.77
2023-02-03T23:37:18.737Z,1.70
2023-02-03T23:39:46.196Z,1.83
2023-02-03T23:42:14.745Z,1.50
2023-02-03T23:44:48.407Z,2.03
2023-02-03T23:47:19.242Z,2.20
2023-02-03T23:49:46.253Z,2.10
2023-02-03T23:52:13.354Z,2.20
2023-02-03T23:54:40.032Z,1.92
2023-02-03T23:57:06.781Z,2.00
2023-02-03T23:59:33.480Z,2.03
